sensor_id;sensor_type;location;lat;lon;timestamp;temperature;humidity
21830;DHT22;11077;50.264;6.798;2022-12-07T00:01:19;1.20;99.90
21830;DHT22;11077;50.264;6.798;2022-12-07T00:03:48;1.20;99.90
21830;DHT22;11077;50.264;6.798;2022-12-07T00:06:17;1.20;99.90
21830;DHT22;11077;50.264;6.798;2022-12-07T00:08:46;1.20;99.90
21830;DHT22;11077;50.264;6.798;2022-12-07T00:11:15;1.20;99.90
21830;DHT22;11077;50.264;6.798;2022-12-07T00:13:44;1.10;99.90
21830;DHT22;11077;50.264;6.798;2022-12-07T00:16:14;1.20;99.90
21830;DHT22;11077;50.264;6.798;2022-12-07T00:18:42;1.20;99.90
21830;DHT22;11077;50.264;6.798;2022-12-07T00:21:11;1.20;99.90
21830;DHT22;11077;50.264;6.798;2022-12-07T00:23:40;1.20;99.90
21830;DHT22;11077;50.264;6.798;2022-12-07T00:26:09;1.20;99.90
21830;DHT22;11077;50.264;6.798;2022-12-07T00:28:37;1.20;99.90
21830;DHT22;11077;50.264;6.798;2022-12-07T00:31:06;1.20;99.90
21830;DHT22;11077;50.264;6.798;2022-12-07T00:33:36;1.20;99.90
21830;DHT22;11077;50.264;6.798;2022-12-07T00:36:06;1.20;99.90
21830;DHT22;11077;50.264;6.798;2022-12-07T00:38:36;1.20;99.90
21830;DHT22;11077;50.264;6.798;2022-12-07T00:41:04;1.20;99.90
21830;DHT22;11077;50.264;6.798;2022-12-07T00:43:32;1.20;99.90
21830;DHT22;11077;50.264;6.798;2022-12-07T00:45:59;1.20;99.90
21830;DHT22;11077;50.264;6.798;2022-12-07T00:48:26;1.20;99.90
21830;DHT22;11077;50.264;6.798;2022-12-07T00:50:55;1.20;99.90
21830;DHT22;11077;50.264;6.798;2022-12-07T00:53:23;1.20;99.90
21830;DHT22;11077;50.264;6.798;2022-12-07T00:55:50;1.20;99.90
21830;DHT22;11077;50.264;6.798;2022-12-07T00:58:18;1.20;99.90
21830;DHT22;11077;50.264;6.798;2022-12-07T01:00:45;1.30;99.90
21830;DHT22;11077;50.264;6.798;2022-12-07T01:03:14;1.30;99.90
21830;DHT22;11077;50.264;6.798;2022-12-07T01:05:49;1.30;99.90
21830;DHT22;11077;50.264;6.798;2022-12-07T01:08:18;1.30;99.90
21830;DHT22;11077;50.264;6.798;2022-12-07T01:10:45;1.30;99.90
21830;DHT22;11077;50.264;6.798;2022-12-07T01:13:13;1.30;99.90
21830;DHT22;11077;50.264;6.798;2022-12-07T01:15:41;1.30;99.90
21830;DHT22;11077;50.264;6.798;2022-12-07T01:18:08;1.30;99.90
21830;DHT22;11077;50.264;6.798;2022-12-07T01:20:36;1.30;99.90
21830;DHT22;11077;50.264;6.798;2022-12-07T01:23:03;1.30;99.90
21830;DHT22;11077;50.264;6.798;2022-12-07T01:25:32;1.30;99.90
21830;DHT22;11077;50.264;6.798;2022-12-07T01:27:59;1.30;99.90
21830;DHT22;11077;50.264;6.798;2022-12-07T01:30:26;1.30;99.90
21830;DHT22;11077;50.264;6.798;2022-12-07T01:32:55;1.30;99.90
21830;DHT22;11077;50.264;6.798;2022-12-07T01:35:22;1.30;99.90
21830;DHT22;11077;50.264;6.798;2022-12-07T01:37:49;1.30;99.90
21830;DHT22;11077;50.264;6.798;2022-12-07T01:40:16;1.30;99.90
21830;DHT22;11077;50.264;6.798;2022-12-07T01:42:45;1.30;99.90
21830;DHT22;11077;50.264;6.798;2022-12-07T01:45:37;1.30;99.90
21830;DHT22;11077;50.264;6.798;2022-12-07T01:48:05;1.30;99.90
21830;DHT22;11077;50.264;6.798;2022-12-07T01:50:34;1.30;99.90
21830;DHT22;11077;50.264;6.798;2022-12-07T01:53:04;1.30;99.90
21830;DHT22;11077;50.264;6.798;2022-12-07T01:55:34;1.30;99.90
21830;DHT22;11077;50.264;6.798;2022-12-07T01:58:05;1.30;99.90
21830;DHT22;11077;50.264;6.798;2022-12-07T02:00:33;1.30;99.90
21830;DHT22;11077;50.264;6.798;2022-12-07T02:03:05;1.30;99.90
21830;DHT22;11077;50.264;6.798;2022-12-07T02:05:34;1.30;99.90
21830;DHT22;11077;50.264;6.798;2022-12-07T02:08:03;1.30;99.90
21830;DHT22;11077;50.264;6.798;2022-12-07T02:10:31;1.30;99.90
21830;DHT22;11077;50.264;6.798;2022-12-07T02:13:01;1.30;99.90
21830;DHT22;11077;50.264;6.798;2022-12-07T02:15:39;1.30;99.90
21830;DHT22;11077;50.264;6.798;2022-12-07T02:18:18;1.30;99.90
21830;DHT22;11077;50.264;6.798;2022-12-07T02:20:52;1.30;99.90
21830;DHT22;11077;50.264;6.798;2022-12-07T02:23:35;1.20;99.90
21830;DHT22;11077;50.264;6.798;2022-12-07T02:26:40;1.30;99.90
21830;DHT22;11077;50.264;6.798;2022-12-07T02:29:17;1.30;99.90
21830;DHT22;11077;50.264;6.798;2022-12-07T02:31:55;1.30;99.90
21830;DHT22;11077;50.264;6.798;2022-12-07T02:34:29;1.30;99.90
21830;DHT22;11077;50.264;6.798;2022-12-07T02:37:03;1.30;99.90
21830;DHT22;11077;50.264;6.798;2022-12-07T02:39:37;1.30;99.90
21830;DHT22;11077;50.264;6.798;2022-12-07T02:42:23;1.30;99.90
21830;DHT22;11077;50.264;6.798;2022-12-07T02:44:53;1.30;99.90
21830;DHT22;11077;50.264;6.798;2022-12-07T02:47:21;1.30;99.90
21830;DHT22;11077;50.264;6.798;2022-12-07T02:49:50;1.30;99.90
21830;DHT22;11077;50.264;6.798;2022-12-07T02:52:17;1.30;99.90
21830;DHT22;11077;50.264;6.798;2022-12-07T02:54:44;1.30;99.90
21830;DHT22;11077;50.264;6.798;2022-12-07T02:57:25;1.30;99.90
21830;DHT22;11077;50.264;6.798;2022-12-07T03:00:03;1.30;99.90
21830;DHT22;11077;50.264;6.798;2022-12-07T03:02:38;1.30;99.90
21830;DHT22;11077;50.264;6.798;2022-12-07T03:05:18;1.30;99.90
21830;DHT22;11077;50.264;6.798;2022-12-07T03:07:54;1.30;99.90
21830;DHT22;11077;50.264;6.798;2022-12-07T03:10:31;1.30;99.90
21830;DHT22;11077;50.264;6.798;2022-12-07T03:13:04;1.40;99.90
21830;DHT22;11077;50.264;6.798;2022-12-07T03:15:38;1.30;99.90
21830;DHT22;11077;50.264;6.798;2022-12-07T03:18:08;1.30;99.90
21830;DHT22;11077;50.264;6.798;2022-12-07T03:20:37;1.30;99.90
21830;DHT22;11077;50.264;6.798;2022-12-07T03:23:06;1.40;99.90
21830;DHT22;11077;50.264;6.798;2022-12-07T03:25:38;1.30;99.90
21830;DHT22;11077;50.264;6.798;2022-12-07T03:28:08;1.40;99.90
21830;DHT22;11077;50.264;6.798;2022-12-07T03:30:43;1.30;99.90
21830;DHT22;11077;50.264;6.798;2022-12-07T03:33:17;1.30;99.90
21830;DHT22;11077;50.264;6.798;2022-12-07T03:35:50;1.40;99.90
21830;DHT22;11077;50.264;6.798;2022-12-07T03:38:20;1.40;99.90
21830;DHT22;11077;50.264;6.798;2022-12-07T03:40:52;1.30;99.90
21830;DHT22;11077;50.264;6.798;2022-12-07T03:43:21;1.40;99.90
21830;DHT22;11077;50.264;6.798;2022-12-07T03:45:57;1.40;99.90
21830;DHT22;11077;50.264;6.798;2022-12-07T03:48:32;1.40;99.90
21830;DHT22;11077;50.264;6.798;2022-12-07T03:51:08;1.40;99.90
21830;DHT22;11077;50.264;6.798;2022-12-07T03:53:42;1.40;99.90
21830;DHT22;11077;50.264;6.798;2022-12-07T03:56:11;1.30;99.90
21830;DHT22;11077;50.264;6.798;2022-12-07T03:58:40;1.30;99.90
21830;DHT22;11077;50.264;6.798;2022-12-07T04:01:09;1.40;99.90
21830;DHT22;11077;50.264;6.798;2022-12-07T04:03:36;1.40;99.90
21830;DHT22;11077;50.264;6.798;2022-12-07T04:06:04;1.40;99.90
21830;DHT22;11077;50.264;6.798;2022-12-07T04:08:32;1.40;99.90
21830;DHT22;11077;50.264;6.798;2022-12-07T04:10:59;1.40;99.90
21830;DHT22;11077;50.264;6.798;2022-12-07T04:13:26;1.30;99.90
21830;DHT22;11077;50.264;6.798;2022-12-07T04:15:54;1.40;99.90
21830;DHT22;11077;50.264;6.798;2022-12-07T04:18:22;1.40;99.90
21830;DHT22;11077;50.264;6.798;2022-12-07T04:20:49;1.40;99.90
21830;DHT22;11077;50.264;6.798;2022-12-07T04:23:17;1.40;99.90
21830;DHT22;11077;50.264;6.798;2022-12-07T04:25:44;1.40;99.90
21830;DHT22;11077;50.264;6.798;2022-12-07T04:28:11;1.40;99.90
21830;DHT22;11077;50.264;6.798;2022-12-07T04:30:38;1.40;99.90
21830;DHT22;11077;50.264;6.798;2022-12-07T04:33:05;1.40;99.90
21830;DHT22;11077;50.264;6.798;2022-12-07T04:35:35;1.30;99.90
21830;DHT22;11077;50.264;6.798;2022-12-07T04:38:03;1.40;99.90
21830;DHT22;11077;50.264;6.798;2022-12-07T04:40:30;1.40;99.90
21830;DHT22;11077;50.264;6.798;2022-12-07T04:42:57;1.40;99.90
21830;DHT22;11077;50.264;6.798;2022-12-07T04:45:24;1.30;99.90
21830;DHT22;11077;50.264;6.798;2022-12-07T04:47:51;1.30;99.90
21830;DHT22;11077;50.264;6.798;2022-12-07T04:50:18;1.40;99.90
21830;DHT22;11077;50.264;6.798;2022-12-07T04:52:47;1.40;99.90
21830;DHT22;11077;50.264;6.798;2022-12-07T04:55:14;1.40;99.90
21830;DHT22;11077;50.264;6.798;2022-12-07T04:57:41;1.40;99.90
21830;DHT22;11077;50.264;6.798;2022-12-07T05:00:09;1.40;99.90
21830;DHT22;11077;50.264;6.798;2022-12-07T05:02:37;1.40;99.90
21830;DHT22;11077;50.264;6.798;2022-12-07T05:05:04;1.40;99.90
21830;DHT22;11077;50.264;6.798;2022-12-07T05:07:32;1.40;99.90
21830;DHT22;11077;50.264;6.798;2022-12-07T05:10:00;1.40;99.90
21830;DHT22;11077;50.264;6.798;2022-12-07T05:12:27;1.40;99.90
21830;DHT22;11077;50.264;6.798;2022-12-07T05:14:54;1.40;99.90
21830;DHT22;11077;50.264;6.798;2022-12-07T05:17:21;1.40;99.90
21830;DHT22;11077;50.264;6.798;2022-12-07T05:19:49;1.40;99.90
21830;DHT22;11077;50.264;6.798;2022-12-07T05:22:16;1.40;99.90
21830;DHT22;11077;50.264;6.798;2022-12-07T05:24:44;1.40;99.90
21830;DHT22;11077;50.264;6.798;2022-12-07T05:27:17;1.40;99.90
21830;DHT22;11077;50.264;6.798;2022-12-07T05:29:44;1.40;99.90
21830;DHT22;11077;50.264;6.798;2022-12-07T05:32:12;1.40;99.90
21830;DHT22;11077;50.264;6.798;2022-12-07T05:34:39;1.40;99.90
21830;DHT22;11077;50.264;6.798;2022-12-07T05:37:06;1.40;99.90
21830;DHT22;11077;50.264;6.798;2022-12-07T05:39:33;1.40;99.90
21830;DHT22;11077;50.264;6.798;2022-12-07T05:42:01;1.40;99.90
21830;DHT22;11077;50.264;6.798;2022-12-07T05:44:42;1.40;99.90
21830;DHT22;11077;50.264;6.798;2022-12-07T05:47:10;1.40;99.90
21830;DHT22;11077;50.264;6.798;2022-12-07T05:49:37;1.40;99.90
21830;DHT22;11077;50.264;6.798;2022-12-07T05:52:05;1.40;99.90
21830;DHT22;11077;50.264;6.798;2022-12-07T05:54:32;1.40;99.90
21830;DHT22;11077;50.264;6.798;2022-12-07T05:57:00;1.30;99.90
21830;DHT22;11077;50.264;6.798;2022-12-07T05:59:27;1.30;99.90
21830;DHT22;11077;50.264;6.798;2022-12-07T06:01:56;1.30;99.90
21830;DHT22;11077;50.264;6.798;2022-12-07T06:04:25;1.30;99.90
21830;DHT22;11077;50.264;6.798;2022-12-07T06:06:53;1.30;99.90
21830;DHT22;11077;50.264;6.798;2022-12-07T06:09:20;1.30;99.90
21830;DHT22;11077;50.264;6.798;2022-12-07T06:11:48;1.30;99.90
21830;DHT22;11077;50.264;6.798;2022-12-07T06:14:33;1.30;99.90
21830;DHT22;11077;50.264;6.798;2022-12-07T06:17:02;1.30;99.90
21830;DHT22;11077;50.264;6.798;2022-12-07T06:19:30;1.30;99.90
21830;DHT22;11077;50.264;6.798;2022-12-07T06:21:57;1.30;99.90
21830;DHT22;11077;50.264;6.798;2022-12-07T06:24:25;1.30;99.90
21830;DHT22;11077;50.264;6.798;2022-12-07T06:26:52;1.30;99.90
21830;DHT22;11077;50.264;6.798;2022-12-07T06:29:19;1.30;99.90
21830;DHT22;11077;50.264;6.798;2022-12-07T06:31:47;1.30;99.90
21830;DHT22;11077;50.264;6.798;2022-12-07T06:34:18;1.30;99.90
21830;DHT22;11077;50.264;6.798;2022-12-07T06:36:46;1.30;99.90
21830;DHT22;11077;50.264;6.798;2022-12-07T06:39:17;1.30;99.90
21830;DHT22;11077;50.264;6.798;2022-12-07T06:41:44;1.30;99.90
21830;DHT22;11077;50.264;6.798;2022-12-07T06:44:13;1.30;99.90
21830;DHT22;11077;50.264;6.798;2022-12-07T06:46:40;1.30;99.90
21830;DHT22;11077;50.264;6.798;2022-12-07T06:49:07;1.30;99.90
21830;DHT22;11077;50.264;6.798;2022-12-07T06:51:36;1.30;99.90
21830;DHT22;11077;50.264;6.798;2022-12-07T06:54:06;1.30;99.90
21830;DHT22;11077;50.264;6.798;2022-12-07T06:56:34;1.30;99.90
21830;DHT22;11077;50.264;6.798;2022-12-07T06:59:01;1.30;99.90
21830;DHT22;11077;50.264;6.798;2022-12-07T07:01:29;1.30;99.90
21830;DHT22;11077;50.264;6.798;2022-12-07T07:03:56;1.20;99.90
21830;DHT22;11077;50.264;6.798;2022-12-07T07:06:23;1.20;99.90
21830;DHT22;11077;50.264;6.798;2022-12-07T07:08:52;1.20;99.90
21830;DHT22;11077;50.264;6.798;2022-12-07T07:11:20;1.20;99.90
21830;DHT22;11077;50.264;6.798;2022-12-07T07:13:47;1.20;99.90
21830;DHT22;11077;50.264;6.798;2022-12-07T07:16:14;1.20;99.90
21830;DHT22;11077;50.264;6.798;2022-12-07T07:18:41;1.20;99.90
21830;DHT22;11077;50.264;6.798;2022-12-07T07:21:09;1.20;99.90
21830;DHT22;11077;50.264;6.798;2022-12-07T07:23:36;1.20;99.90
21830;DHT22;11077;50.264;6.798;2022-12-07T07:26:05;1.20;99.90
21830;DHT22;11077;50.264;6.798;2022-12-07T07:28:32;1.20;99.90
21830;DHT22;11077;50.264;6.798;2022-12-07T07:30:59;1.30;99.90
21830;DHT22;11077;50.264;6.798;2022-12-07T07:33:26;1.20;99.90
21830;DHT22;11077;50.264;6.798;2022-12-07T07:35:54;1.20;99.90
21830;DHT22;11077;50.264;6.798;2022-12-07T07:38:21;1.20;99.90
21830;DHT22;11077;50.264;6.798;2022-12-07T07:40:48;1.20;99.90
21830;DHT22;11077;50.264;6.798;2022-12-07T07:43:17;1.20;99.90
21830;DHT22;11077;50.264;6.798;2022-12-07T07:45:44;1.20;99.90
21830;DHT22;11077;50.264;6.798;2022-12-07T07:48:12;1.20;99.90
21830;DHT22;11077;50.264;6.798;2022-12-07T07:50:39;1.20;99.90
21830;DHT22;11077;50.264;6.798;2022-12-07T07:53:06;1.20;99.90
21830;DHT22;11077;50.264;6.798;2022-12-07T07:55:34;1.20;99.90
21830;DHT22;11077;50.264;6.798;2022-12-07T07:58:01;1.20;99.90
21830;DHT22;11077;50.264;6.798;2022-12-07T08:00:29;1.30;99.90
21830;DHT22;11077;50.264;6.798;2022-12-07T08:02:56;1.30;99.90
21830;DHT22;11077;50.264;6.798;2022-12-07T08:05:24;1.30;99.90
21830;DHT22;11077;50.264;6.798;2022-12-07T08:07:52;1.30;99.90
21830;DHT22;11077;50.264;6.798;2022-12-07T08:10:19;1.30;99.90
21830;DHT22;11077;50.264;6.798;2022-12-07T08:12:46;1.30;99.90
21830;DHT22;11077;50.264;6.798;2022-12-07T08:15:32;1.30;99.90
21830;DHT22;11077;50.264;6.798;2022-12-07T08:18:00;1.30;99.90
21830;DHT22;11077;50.264;6.798;2022-12-07T08:20:29;1.30;99.90
21830;DHT22;11077;50.264;6.798;2022-12-07T08:22:57;1.30;99.90
21830;DHT22;11077;50.264;6.798;2022-12-07T08:25:24;1.30;99.90
21830;DHT22;11077;50.264;6.798;2022-12-07T08:27:52;1.30;99.90
21830;DHT22;11077;50.264;6.798;2022-12-07T08:30:20;1.30;99.90
21830;DHT22;11077;50.264;6.798;2022-12-07T08:32:49;1.30;99.90
21830;DHT22;11077;50.264;6.798;2022-12-07T08:35:16;1.30;99.90
21830;DHT22;11077;50.264;6.798;2022-12-07T08:37:44;1.30;99.90
21830;DHT22;11077;50.264;6.798;2022-12-07T08:40:12;1.40;99.90
21830;DHT22;11077;50.264;6.798;2022-12-07T08:42:41;1.40;99.90
21830;DHT22;11077;50.264;6.798;2022-12-07T08:45:12;1.50;99.90
21830;DHT22;11077;50.264;6.798;2022-12-07T08:47:43;1.50;99.90
21830;DHT22;11077;50.264;6.798;2022-12-07T08:50:13;1.50;99.90
21830;DHT22;11077;50.264;6.798;2022-12-07T08:52:41;1.60;99.90
21830;DHT22;11077;50.264;6.798;2022-12-07T08:55:10;1.60;99.90
21830;DHT22;11077;50.264;6.798;2022-12-07T08:57:38;1.60;99.90
21830;DHT22;11077;50.264;6.798;2022-12-07T09:00:07;1.60;99.90
21830;DHT22;11077;50.264;6.798;2022-12-07T09:02:34;1.70;99.90
21830;DHT22;11077;50.264;6.798;2022-12-07T09:05:03;1.60;99.90
21830;DHT22;11077;50.264;6.798;2022-12-07T09:07:32;1.60;99.90
21830;DHT22;11077;50.264;6.798;2022-12-07T09:10:01;1.60;99.90
21830;DHT22;11077;50.264;6.798;2022-12-07T09:12:28;1.60;99.90
21830;DHT22;11077;50.264;6.798;2022-12-07T09:14:55;1.60;99.90
21830;DHT22;11077;50.264;6.798;2022-12-07T09:17:23;1.70;99.90
21830;DHT22;11077;50.264;6.798;2022-12-07T09:19:50;1.60;99.90
21830;DHT22;11077;50.264;6.798;2022-12-07T09:22:17;1.70;99.90
21830;DHT22;11077;50.264;6.798;2022-12-07T09:24:46;1.60;99.90
21830;DHT22;11077;50.264;6.798;2022-12-07T09:27:13;1.70;99.90
21830;DHT22;11077;50.264;6.798;2022-12-07T09:29:42;1.70;99.90
21830;DHT22;11077;50.264;6.798;2022-12-07T09:32:09;1.80;99.90
21830;DHT22;11077;50.264;6.798;2022-12-07T09:34:36;1.70;99.90
21830;DHT22;11077;50.264;6.798;2022-12-07T09:37:04;1.70;99.90
21830;DHT22;11077;50.264;6.798;2022-12-07T09:39:32;1.70;99.90
21830;DHT22;11077;50.264;6.798;2022-12-07T09:42:04;1.80;99.90
21830;DHT22;11077;50.264;6.798;2022-12-07T09:44:33;1.80;99.90
21830;DHT22;11077;50.264;6.798;2022-12-07T09:47:02;1.80;99.90
21830;DHT22;11077;50.264;6.798;2022-12-07T09:49:31;1.90;99.90
21830;DHT22;11077;50.264;6.798;2022-12-07T09:52:01;1.90;99.90
21830;DHT22;11077;50.264;6.798;2022-12-07T09:54:29;2.00;99.90
21830;DHT22;11077;50.264;6.798;2022-12-07T09:56:59;2.10;99.90
21830;DHT22;11077;50.264;6.798;2022-12-07T09:59:27;2.10;99.90
21830;DHT22;11077;50.264;6.798;2022-12-07T10:01:55;2.10;99.90
21830;DHT22;11077;50.264;6.798;2022-12-07T10:04:24;2.20;99.90
21830;DHT22;11077;50.264;6.798;2022-12-07T10:06:52;2.20;99.90
21830;DHT22;11077;50.264;6.798;2022-12-07T10:09:21;2.20;99.90
21830;DHT22;11077;50.264;6.798;2022-12-07T10:12:05;2.20;99.90
21830;DHT22;11077;50.264;6.798;2022-12-07T10:14:34;2.20;99.90
21830;DHT22;11077;50.264;6.798;2022-12-07T10:17:02;2.20;99.90
21830;DHT22;11077;50.264;6.798;2022-12-07T10:19:49;2.20;99.90
21830;DHT22;11077;50.264;6.798;2022-12-07T10:22:17;2.20;99.90
21830;DHT22;11077;50.264;6.798;2022-12-07T10:24:46;2.20;99.90
21830;DHT22;11077;50.264;6.798;2022-12-07T10:27:21;2.20;99.90
21830;DHT22;11077;50.264;6.798;2022-12-07T10:29:50;2.20;99.90
21830;DHT22;11077;50.264;6.798;2022-12-07T10:32:31;2.20;99.90
21830;DHT22;11077;50.264;6.798;2022-12-07T10:35:20;2.10;99.90
21830;DHT22;11077;50.264;6.798;2022-12-07T10:37:49;2.20;99.90
21830;DHT22;11077;50.264;6.798;2022-12-07T10:40:26;2.10;99.90
21830;DHT22;11077;50.264;6.798;2022-12-07T10:43:17;2.20;99.90
21830;DHT22;11077;50.264;6.798;2022-12-07T10:48:58;2.20;99.90
21830;DHT22;11077;50.264;6.798;2022-12-07T10:51:34;2.20;99.90
21830;DHT22;11077;50.264;6.798;2022-12-07T10:54:10;2.20;99.90
21830;DHT22;11077;50.264;6.798;2022-12-07T10:56:52;2.20;99.90
21830;DHT22;11077;50.264;6.798;2022-12-07T10:59:33;2.20;99.90
21830;DHT22;11077;50.264;6.798;2022-12-07T11:02:20;2.20;99.90
21830;DHT22;11077;50.264;6.798;2022-12-07T11:04:59;2.30;99.90
21830;DHT22;11077;50.264;6.798;2022-12-07T11:07:41;2.30;99.90
21830;DHT22;11077;50.264;6.798;2022-12-07T11:10:15;2.40;99.90
21830;DHT22;11077;50.264;6.798;2022-12-07T11:13:12;2.30;99.90
21830;DHT22;11077;50.264;6.798;2022-12-07T11:15:53;2.30;99.90
21830;DHT22;11077;50.264;6.798;2022-12-07T11:18:26;2.40;99.90
21830;DHT22;11077;50.264;6.798;2022-12-07T11:21:05;2.40;99.90
21830;DHT22;11077;50.264;6.798;2022-12-07T11:23:43;2.40;99.90
21830;DHT22;11077;50.264;6.798;2022-12-07T11:26:19;2.40;99.90
21830;DHT22;11077;50.264;6.798;2022-12-07T11:29:03;2.30;99.90
21830;DHT22;11077;50.264;6.798;2022-12-07T11:31:36;2.40;99.90
21830;DHT22;11077;50.264;6.798;2022-12-07T11:34:10;2.40;99.90
21830;DHT22;11077;50.264;6.798;2022-12-07T11:36:41;2.40;99.90
21830;DHT22;11077;50.264;6.798;2022-12-07T11:39:19;2.40;99.90
21830;DHT22;11077;50.264;6.798;2022-12-07T11:41:52;2.40;99.90
21830;DHT22;11077;50.264;6.798;2022-12-07T11:44:30;2.40;99.90
21830;DHT22;11077;50.264;6.798;2022-12-07T11:47:05;2.40;99.90
21830;DHT22;11077;50.264;6.798;2022-12-07T11:49:42;2.50;99.90
21830;DHT22;11077;50.264;6.798;2022-12-07T11:52:17;2.50;99.90
21830;DHT22;11077;50.264;6.798;2022-12-07T11:54:46;2.50;99.90
21830;DHT22;11077;50.264;6.798;2022-12-07T11:57:20;2.60;99.90
21830;DHT22;11077;50.264;6.798;2022-12-07T11:59:54;2.70;99.90
21830;DHT22;11077;50.264;6.798;2022-12-07T12:02:31;2.70;99.90
21830;DHT22;11077;50.264;6.798;2022-12-07T12:05:11;2.70;99.90
21830;DHT22;11077;50.264;6.798;2022-12-07T12:07:41;2.80;99.90
21830;DHT22;11077;50.264;6.798;2022-12-07T12:10:17;2.80;99.90
21830;DHT22;11077;50.264;6.798;2022-12-07T12:19:00;2.90;99.90
21830;DHT22;11077;50.264;6.798;2022-12-07T12:21:32;2.80;99.90
21830;DHT22;11077;50.264;6.798;2022-12-07T12:24:06;2.80;99.90
21830;DHT22;11077;50.264;6.798;2022-12-07T12:26:37;2.70;99.90
21830;DHT22;11077;50.264;6.798;2022-12-07T12:29:06;2.70;99.90
21830;DHT22;11077;50.264;6.798;2022-12-07T12:31:47;2.60;99.90
21830;DHT22;11077;50.264;6.798;2022-12-07T12:34:38;2.60;99.90
21830;DHT22;11077;50.264;6.798;2022-12-07T12:37:40;2.50;99.90
21830;DHT22;11077;50.264;6.798;2022-12-07T12:40:38;2.50;99.90
21830;DHT22;11077;50.264;6.798;2022-12-07T12:46:38;2.50;99.90
21830;DHT22;11077;50.264;6.798;2022-12-07T12:49:36;2.50;99.90
21830;DHT22;11077;50.264;6.798;2022-12-07T12:55:14;2.50;99.90
21830;DHT22;11077;50.264;6.798;2022-12-07T12:57:46;2.50;99.90
21830;DHT22;11077;50.264;6.798;2022-12-07T13:00:18;2.50;99.90
21830;DHT22;11077;50.264;6.798;2022-12-07T13:02:50;2.50;99.90
21830;DHT22;11077;50.264;6.798;2022-12-07T13:05:22;2.60;99.90
21830;DHT22;11077;50.264;6.798;2022-12-07T13:07:56;2.60;99.90
21830;DHT22;11077;50.264;6.798;2022-12-07T13:10:39;2.70;99.90
21830;DHT22;11077;50.264;6.798;2022-12-07T13:13:30;2.80;99.90
21830;DHT22;11077;50.264;6.798;2022-12-07T13:18:58;2.80;99.90
21830;DHT22;11077;50.264;6.798;2022-12-07T13:21:43;2.80;99.90
21830;DHT22;11077;50.264;6.798;2022-12-07T13:24:12;2.90;99.90
21830;DHT22;11077;50.264;6.798;2022-12-07T13:26:42;2.80;99.90
21830;DHT22;11077;50.264;6.798;2022-12-07T13:29:12;2.90;99.90
21830;DHT22;11077;50.264;6.798;2022-12-07T13:31:41;2.80;99.90
21830;DHT22;11077;50.264;6.798;2022-12-07T13:34:29;2.70;99.90
21830;DHT22;11077;50.264;6.798;2022-12-07T13:36:59;2.70;99.90
21830;DHT22;11077;50.264;6.798;2022-12-07T13:39:27;2.70;99.90
21830;DHT22;11077;50.264;6.798;2022-12-07T13:41:58;2.70;99.90
21830;DHT22;11077;50.264;6.798;2022-12-07T13:44:33;2.70;99.90
21830;DHT22;11077;50.264;6.798;2022-12-07T13:47:06;2.70;99.90
21830;DHT22;11077;50.264;6.798;2022-12-07T13:49:44;2.70;99.90
21830;DHT22;11077;50.264;6.798;2022-12-07T13:52:17;2.70;99.90
21830;DHT22;11077;50.264;6.798;2022-12-07T13:54:46;2.70;99.90
21830;DHT22;11077;50.264;6.798;2022-12-07T13:57:14;2.70;99.90
21830;DHT22;11077;50.264;6.798;2022-12-07T13:59:42;2.70;99.90
21830;DHT22;11077;50.264;6.798;2022-12-07T14:02:20;2.60;99.90
21830;DHT22;11077;50.264;6.798;2022-12-07T14:04:49;2.70;99.90
21830;DHT22;11077;50.264;6.798;2022-12-07T14:07:23;2.70;99.90
21830;DHT22;11077;50.264;6.798;2022-12-07T14:09:59;2.70;99.90
21830;DHT22;11077;50.264;6.798;2022-12-07T14:12:27;2.70;99.90
21830;DHT22;11077;50.264;6.798;2022-12-07T14:14:56;2.70;99.90
21830;DHT22;11077;50.264;6.798;2022-12-07T14:17:24;2.60;99.90
21830;DHT22;11077;50.264;6.798;2022-12-07T14:19:53;2.60;99.90
21830;DHT22;11077;50.264;6.798;2022-12-07T14:22:26;2.50;99.90
21830;DHT22;11077;50.264;6.798;2022-12-07T14:25:19;2.50;99.90
21830;DHT22;11077;50.264;6.798;2022-12-07T14:27:51;2.50;99.90
21830;DHT22;11077;50.264;6.798;2022-12-07T14:30:21;2.50;99.90
21830;DHT22;11077;50.264;6.798;2022-12-07T14:32:52;2.50;99.90
21830;DHT22;11077;50.264;6.798;2022-12-07T14:35:20;2.50;99.90
21830;DHT22;11077;50.264;6.798;2022-12-07T14:37:49;2.50;99.90
21830;DHT22;11077;50.264;6.798;2022-12-07T14:40:18;2.40;99.90
21830;DHT22;11077;50.264;6.798;2022-12-07T14:42:47;2.40;99.90
21830;DHT22;11077;50.264;6.798;2022-12-07T14:45:16;2.30;99.90
21830;DHT22;11077;50.264;6.798;2022-12-07T14:47:44;2.30;99.90
21830;DHT22;11077;50.264;6.798;2022-12-07T14:50:12;2.30;99.90
21830;DHT22;11077;50.264;6.798;2022-12-07T14:52:40;2.30;99.90
21830;DHT22;11077;50.264;6.798;2022-12-07T14:55:16;2.30;99.90
21830;DHT22;11077;50.264;6.798;2022-12-07T14:57:46;2.30;99.90
21830;DHT22;11077;50.264;6.798;2022-12-07T15:00:15;2.20;99.90
21830;DHT22;11077;50.264;6.798;2022-12-07T15:02:43;2.20;99.90
21830;DHT22;11077;50.264;6.798;2022-12-07T15:05:10;2.20;99.90
21830;DHT22;11077;50.264;6.798;2022-12-07T15:07:38;2.20;99.90
21830;DHT22;11077;50.264;6.798;2022-12-07T15:10:09;2.20;99.90
21830;DHT22;11077;50.264;6.798;2022-12-07T15:12:41;2.20;99.90
21830;DHT22;11077;50.264;6.798;2022-12-07T15:15:09;2.10;99.90
21830;DHT22;11077;50.264;6.798;2022-12-07T15:17:36;2.20;99.90
21830;DHT22;11077;50.264;6.798;2022-12-07T15:20:05;2.20;99.90
21830;DHT22;11077;50.264;6.798;2022-12-07T15:22:33;2.10;99.90
21830;DHT22;11077;50.264;6.798;2022-12-07T15:25:00;2.10;99.90
21830;DHT22;11077;50.264;6.798;2022-12-07T15:27:27;2.10;99.90
21830;DHT22;11077;50.264;6.798;2022-12-07T15:29:56;2.10;99.90
21830;DHT22;11077;50.264;6.798;2022-12-07T15:32:23;2.10;99.90
21830;DHT22;11077;50.264;6.798;2022-12-07T15:34:50;2.10;99.90
21830;DHT22;11077;50.264;6.798;2022-12-07T15:37:17;2.10;99.90
21830;DHT22;11077;50.264;6.798;2022-12-07T15:39:44;2.10;99.90
21830;DHT22;11077;50.264;6.798;2022-12-07T15:42:11;2.10;99.90
21830;DHT22;11077;50.264;6.798;2022-12-07T15:44:39;2.00;99.90
21830;DHT22;11077;50.264;6.798;2022-12-07T15:47:25;2.00;99.90
21830;DHT22;11077;50.264;6.798;2022-12-07T15:49:52;2.00;99.90
21830;DHT22;11077;50.264;6.798;2022-12-07T15:52:19;1.90;99.90
21830;DHT22;11077;50.264;6.798;2022-12-07T15:54:46;2.00;99.90
21830;DHT22;11077;50.264;6.798;2022-12-07T15:57:14;2.00;99.90
21830;DHT22;11077;50.264;6.798;2022-12-07T15:59:41;2.00;99.90
21830;DHT22;11077;50.264;6.798;2022-12-07T16:02:09;2.00;99.90
21830;DHT22;11077;50.264;6.798;2022-12-07T16:04:38;1.90;99.90
21830;DHT22;11077;50.264;6.798;2022-12-07T16:07:05;1.90;99.90
21830;DHT22;11077;50.264;6.798;2022-12-07T16:09:32;2.00;99.90
21830;DHT22;11077;50.264;6.798;2022-12-07T16:11:59;1.90;99.90
21830;DHT22;11077;50.264;6.798;2022-12-07T16:14:27;2.00;99.90
21830;DHT22;11077;50.264;6.798;2022-12-07T16:16:54;2.00;99.90
21830;DHT22;11077;50.264;6.798;2022-12-07T16:19:21;2.00;99.90
21830;DHT22;11077;50.264;6.798;2022-12-07T16:21:49;2.00;99.90
21830;DHT22;11077;50.264;6.798;2022-12-07T16:24:17;2.00;99.90
21830;DHT22;11077;50.264;6.798;2022-12-07T16:26:44;2.00;99.90